| time (UTC) | temp C | wind direction | speed KPH | gust KPH | rain 1hr cm | rain 24hr cm | rain mn cm | humidity % | barometer mb |
| 20260507074541 | 12 | 324 | 3.2 | 6.4 | 0.00 | 0.00 | 0.00 | 74 | 1017.1 |
| 20260507074029 | 11 | 1 | 3.2 | 6.4 | 0.00 | 0.00 | 0.00 | 75 | 1017.1 |
| 20260507073529 | 11 | 354 | 4.8 | 9.7 | 0.00 | 0.00 | 0.00 | 75 | 1017.1 |
| 20260507073024 | 11 | 15 | 4.8 | 8.0 | 0.00 | 0.00 | 0.00 | 75 | 1017.0 |
| 20260507072525 | 11 | 11 | 4.8 | 8.0 | 0.00 | 0.00 | 0.00 | 75 | 1017.0 |
| 20260507072030 | 11 | 349 | 3.2 | 8.0 | 0.00 | 0.00 | 0.00 | 77 | 1017.0 |
| 20260507071529 | 11 | 357 | 3.2 | 8.0 | 0.00 | 0.00 | 0.00 | 80 | 1017.0 |
| 20260507071029 | 11 | 344 | 3.2 | 6.4 | 0.00 | 0.00 | 0.00 | 79 | 1016.9 |
| 20260507070530 | 11 | 350 | 3.2 | 8.0 | 0.00 | 0.00 | 0.00 | 82 | 1017.0 |
| 20260507070029 | 11 | 356 | 3.2 | 6.4 | 0.00 | 0.00 | 0.00 | 82 | 1017.0 |
| 20260507065529 | 11 | 14 | 3.2 | 4.8 | 0.00 | 0.00 | 0.00 | 82 | 1017.0 |
| 20260507065032 | 10 | 358 | 3.2 | 3.2 | 0.00 | 0.00 | 0.00 | 83 | 1017.0 |
| 20260507064524 | 10 | 18 | 3.2 | 4.8 | 0.00 | 0.00 | 0.00 | 83 | 1017.0 |
| 20260507064037 | 10 | 346 | 1.6 | 4.8 | 0.00 | 0.00 | 0.00 | 83 | 1016.9 |
| 20260507063529 | 10 | 335 | 1.6 | 6.4 | 0.00 | 0.00 | 0.00 | 84 | 1016.9 |
| 20260507063029 | 10 | 345 | 1.6 | 6.4 | 0.00 | 0.00 | 0.00 | 83 | 1016.8 |
| 20260507062529 | 10 | 334 | 1.6 | 4.8 | 0.00 | 0.00 | 0.00 | 83 | 1016.8 |
| 20260507062029 | 10 | 332 | 1.6 | 4.8 | 0.00 | 0.00 | 0.00 | 84 | 1016.7 |
| 20260507061529 | 9 | 357 | 1.6 | 4.8 | 0.00 | 0.00 | 0.00 | 86 | 1016.7 |
| 20260507061029 | 9 | 2 | 3.2 | 6.4 | 0.00 | 0.00 | 0.00 | 86 | 1016.8 |
| 20260507060526 | 9 | 355 | 3.2 | 4.8 | 0.00 | 0.00 | 0.00 | 86 | 1016.7 |
| 20260507060029 | 8 | 354 | 0.0 | 0.0 | 0.00 | 0.00 | 0.00 | 87 | 1016.7 |
| 20260507055524 | 8 | 354 | 0.0 | 0.0 | 0.00 | 0.00 | 0.00 | 90 | 1016.6 |
| 20260507055029 | 8 | 354 | 0.0 | 0.0 | 0.00 | 0.00 | 0.00 | 91 | 1016.6 |
| 20260507054529 | 8 | 354 | 0.0 | 0.0 | 0.00 | 0.00 | 0.00 | 91 | 1016.6 |
| 20260507054029 | 8 | 354 | 0.0 | 0.0 | 0.00 | 0.00 | 0.00 | 91 | 1016.5 |
| 20260507053529 | 7 | 354 | 0.0 | 0.0 | 0.00 | 0.00 | 0.00 | 91 | 1016.5 |
| 20260507053023 | 7 | 354 | 0.0 | 0.0 | 0.00 | 0.00 | 0.00 | 90 | 1016.4 |
| 20260507052529 | 7 | 354 | 0.0 | 0.0 | 0.00 | 0.00 | 0.00 | 90 | 1016.4 |
| 20260507052029 | 7 | 354 | 0.0 | 0.0 | 0.00 | 0.00 | 0.00 | 90 | 1016.3 |
| 20260507051530 | 7 | 354 | 0.0 | 0.0 | 0.00 | 0.00 | 0.00 | 90 | 1016.3 |
| 20260507051041 | 7 | 354 | 0.0 | 0.0 | 0.00 | 0.00 | 0.00 | 89 | 1016.3 |
| 20260507050529 | 7 | 354 | 0.0 | 0.0 | 0.00 | 0.00 | 0.00 | 89 | 1016.2 |
| 20260507050033 | 7 | 354 | 0.0 | 0.0 | 0.00 | 0.00 | 0.00 | 89 | 1016.2 |
| 20260507045529 | 7 | 354 | 0.0 | 0.0 | 0.00 | 0.00 | 0.00 | 89 | 1016.1 |
| 20260507045022 | 7 | 354 | 0.0 | 0.0 | 0.00 | 0.00 | 0.00 | 89 | 1016.0 |
| 20260507044554 | 7 | 354 | 0.0 | 0.0 | 0.00 | 0.00 | 0.00 | 88 | 1016.0 |
| 20260507044031 | 7 | 354 | 0.0 | 0.0 | 0.00 | 0.00 | 0.00 | 88 | 1016.0 |
| 20260507043536 | 8 | 354 | 0.0 | 0.0 | 0.00 | 0.00 | 0.00 | 88 | 1015.9 |
| 20260507043029 | 8 | 354 | 0.0 | 0.0 | 0.00 | 0.00 | 0.00 | 88 | 1015.8 |
| 20260507042529 | 8 | 357 | 1.6 | 3.2 | 0.00 | 0.00 | 0.00 | 87 | 1015.8 |
| 20260507042029 | 8 | 13 | 1.6 | 3.2 | 0.00 | 0.00 | 0.00 | 87 | 1015.8 |
| 20260507041529 | 8 | 358 | 3.2 | 6.4 | 0.00 | 0.00 | 0.00 | 87 | 1015.8 |
| 20260507041023 | 8 | 340 | 1.6 | 3.2 | 0.00 | 0.00 | 0.00 | 88 | 1015.7 |
| 20260507040531 | 8 | 335 | 1.6 | 3.2 | 0.00 | 0.00 | 0.00 | 88 | 1015.7 |
| 20260507040029 | 8 | 335 | 1.6 | 6.4 | 0.00 | 0.00 | 0.00 | 88 | 1015.7 |
| 20260507035529 | 8 | 354 | 0.0 | 0.0 | 0.00 | 0.00 | 0.00 | 89 | 1015.6 |
| 20260507035029 | 8 | 10 | 0.0 | 0.0 | 0.00 | 0.00 | 0.00 | 89 | 1015.6 |
| 20260507034542 | 8 | 346 | 0.0 | 0.0 | 0.00 | 0.00 | 0.00 | 89 | 1015.6 |
| 20260507034030 | 8 | 322 | 0.0 | 0.0 | 0.00 | 0.00 | 0.00 | 90 | 1015.5 |
| 20260507033529 | 8 | 346 | 0.0 | 0.0 | 0.00 | 0.00 | 0.00 | 90 | 1015.5 |
| 20260507033029 | 8 | 342 | 0.0 | 0.0 | 0.00 | 0.00 | 0.00 | 90 | 1015.4 |
| 20260507032529 | 8 | 347 | 0.0 | 0.0 | 0.00 | 0.00 | 0.00 | 90 | 1015.4 |
| 20260507032029 | 8 | 336 | 0.0 | 3.2 | 0.00 | 0.00 | 0.00 | 90 | 1015.4 |
| 20260507031529 | 8 | 336 | 3.2 | 4.8 | 0.00 | 0.00 | 0.00 | 90 | 1015.4 |
| 20260507031029 | 8 | 348 | 1.6 | 3.2 | 0.00 | 0.00 | 0.00 | 89 | 1015.4 |
| 20260507030529 | 8 | 350 | 1.6 | 6.4 | 0.00 | 0.00 | 0.00 | 89 | 1015.3 |
| 20260507030038 | 8 | 351 | 1.6 | 6.4 | 0.00 | 0.00 | 0.00 | 88 | 1015.3 |
| 20260507025529 | 8 | 338 | 1.6 | 3.2 | 0.00 | 0.00 | 0.00 | 88 | 1015.3 |
| 20260507025026 | 8 | 319 | 0.0 | 3.2 | 0.00 | 0.00 | 0.00 | 88 | 1015.2 |
| 20260507024529 | 9 | 318 | 0.0 | 0.0 | 0.00 | 0.00 | 0.00 | 88 | 1015.2 |
| 20260507024030 | 9 | 317 | 1.6 | 4.8 | 0.00 | 0.00 | 0.00 | 87 | 1015.2 |
| 20260507023529 | 9 | 336 | 0.0 | 4.8 | 0.00 | 0.00 | 0.00 | 87 | 1015.2 |
| 20260507023033 | 9 | 351 | 1.6 | 3.2 | 0.00 | 0.00 | 0.00 | 88 | 1015.2 |
| 20260507022529 | 9 | 358 | 0.0 | 3.2 | 0.00 | 0.00 | 0.00 | 89 | 1015.2 |
| 20260507022029 | 9 | 353 | 0.0 | 3.2 | 0.00 | 0.00 | 0.00 | 88 | 1015.1 |
| 20260507021521 | 9 | 352 | 1.6 | 3.2 | 0.00 | 0.00 | 0.00 | 88 | 1015.0 |
| 20260507021032 | 9 | 353 | 0.0 | 3.2 | 0.00 | 0.00 | 0.00 | 88 | 1015.0 |
| 20260507020535 | 9 | 343 | 3.2 | 6.4 | 0.00 | 0.00 | 0.00 | 87 | 1014.9 |
| 20260507020029 | 10 | 352 | 0.0 | 0.0 | 0.00 | 0.00 | 0.00 | 87 | 1014.8 |
| 20260507015529 | 10 | 353 | 1.6 | 6.4 | 0.00 | 0.00 | 0.00 | 87 | 1014.8 |
| 20260507015029 | 10 | 348 | 1.6 | 3.2 | 0.00 | 0.00 | 0.00 | 87 | 1014.8 |
| 20260507014529 | 10 | 342 | 0.0 | 3.2 | 0.00 | 0.00 | 0.00 | 87 | 1014.8 |
| 20260507014031 | 10 | 30 | 0.0 | 4.8 | 0.00 | 0.00 | 0.00 | 86 | 1014.8 |
| 20260507013530 | 10 | 1 | 3.2 | 6.4 | 0.00 | 0.00 | 0.00 | 86 | 1014.8 |
| 20260507013021 | 10 | 8 | 1.6 | 4.8 | 0.00 | 0.00 | 0.00 | 86 | 1014.8 |
| 20260507012529 | 10 | 5 | 1.6 | 6.4 | 0.00 | 0.00 | 0.00 | 85 | 1014.8 |
| 20260507012029 | 10 | 358 | 3.2 | 6.4 | 0.00 | 0.00 | 0.00 | 85 | 1014.7 |
| 20260507011529 | 10 | 333 | 1.6 | 6.4 | 0.00 | 0.00 | 0.00 | 85 | 1014.7 |
| 20260507011029 | 10 | 332 | 1.6 | 4.8 | 0.00 | 0.00 | 0.00 | 85 | 1014.7 |
| 20260507010529 | 10 | 330 | 1.6 | 6.4 | 0.00 | 0.00 | 0.00 | 85 | 1014.7 |
| 20260507010029 | 10 | 343 | 3.2 | 6.4 | 0.00 | 0.00 | 0.00 | 85 | 1014.7 |
| 20260507005526 | 10 | 352 | 3.2 | 4.8 | 0.00 | 0.00 | 0.00 | 85 | 1014.7 |
| 20260507005031 | 10 | 353 | 1.6 | 4.8 | 0.00 | 0.00 | 0.00 | 85 | 1014.6 |
| 20260507004529 | 10 | 354 | 0.0 | 3.2 | 0.00 | 0.00 | 0.00 | 85 | 1014.6 |
| 20260507004029 | 10 | 353 | 1.6 | 4.8 | 0.00 | 0.00 | 0.00 | 84 | 1014.5 |
| 20260507003529 | 10 | 346 | 1.6 | 6.4 | 0.00 | 0.00 | 0.00 | 84 | 1014.5 |
| 20260507003033 | 10 | 1 | 1.6 | 3.2 | 0.00 | 0.00 | 0.00 | 82 | 1014.5 |
| 20260507002529 | 11 | 348 | 1.6 | 4.8 | 0.00 | 0.00 | 0.00 | 81 | 1014.5 |
| 20260507002029 | 11 | 342 | 3.2 | 4.8 | 0.00 | 0.00 | 0.00 | 80 | 1014.5 |
| 20260507001525 | 11 | 344 | 1.6 | 6.4 | 0.00 | 0.00 | 0.00 | 79 | 1014.5 |
| 20260507001033 | 11 | 1 | 1.6 | 4.8 | 0.00 | 0.00 | 0.00 | 79 | 1014.5 |
| 20260507000542 | 11 | 12 | 1.6 | 6.4 | 0.00 | 0.00 | 0.00 | 80 | 1014.5 |
| 20260507000029 | 11 | 16 | 1.6 | 6.4 | 0.00 | 0.00 | 0.00 | 80 | 1014.6 |
| 20260506235525 | 11 | 0 | 1.6 | 3.2 | 0.00 | 0.00 | 0.00 | 80 | 1014.5 |
| 20260506235029 | 11 | 12 | 3.2 | 4.8 | 0.00 | 0.00 | 0.00 | 80 | 1014.5 |
| 20260506234529 | 11 | 339 | 1.6 | 4.8 | 0.00 | 0.00 | 0.00 | 80 | 1014.4 |
| 20260506234021 | 11 | 344 | 1.6 | 6.4 | 0.00 | 0.00 | 0.00 | 79 | 1014.4 |
| 20260506233529 | 11 | 333 | 1.6 | 4.8 | 0.00 | 0.00 | 0.00 | 80 | 1014.3 |
| 20260506233029 | 11 | 306 | 0.0 | 3.2 | 0.00 | 0.00 | 0.00 | 80 | 1014.2 |
| 20260506232542 | 11 | 13 | 1.6 | 3.2 | 0.00 | 0.00 | 0.00 | 80 | 1014.1 |
| 20260506232031 | 11 | 351 | 3.2 | 4.8 | 0.00 | 0.00 | 0.00 | 81 | 1014.2 |
| 20260506231529 | 11 | 1 | 3.2 | 6.4 | 0.00 | 0.00 | 0.00 | 81 | 1014.1 |
| 20260506231031 | 11 | 353 | 3.2 | 8.0 | 0.00 | 0.00 | 0.00 | 81 | 1014.1 |
| 20260506230531 | 11 | 347 | 0.0 | 6.4 | 0.00 | 0.00 | 0.00 | 82 | 1014.1 |
| 20260506230021 | 11 | 10 | 0.0 | 0.0 | 0.00 | 0.00 | 0.00 | 82 | 1014.1 |
| 20260506225537 | 11 | 354 | 1.6 | 6.4 | 0.00 | 0.00 | 0.00 | 81 | 1014.1 |
| 20260506225029 | 11 | 6 | 1.6 | 3.2 | 0.00 | 0.00 | 0.00 | 81 | 1014.0 |
| 20260506224529 | 11 | 6 | 0.0 | 4.8 | 0.00 | 0.00 | 0.00 | 80 | 1014.1 |
| 20260506224029 | 11 | 6 | 0.0 | 3.2 | 0.00 | 0.00 | 0.00 | 80 | 1014.0 |
| 20260506223529 | 11 | 6 | 0.0 | 0.0 | 0.00 | 0.00 | 0.00 | 80 | 1014.0 |
| 20260506223029 | 11 | 6 | 0.0 | 0.0 | 0.00 | 0.00 | 0.00 | 80 | 1014.0 |
| 20260506222529 | 11 | 6 | 0.0 | 0.0 | 0.00 | 0.00 | 0.00 | 79 | 1014.0 |
| 20260506222025 | 11 | 6 | 0.0 | 0.0 | 0.00 | 0.00 | 0.00 | 78 | 1014.0 |
| 20260506221530 | 11 | 6 | 0.0 | 0.0 | 0.00 | 0.00 | 0.00 | 77 | 1014.0 |
| 20260506221037 | 11 | 6 | 0.0 | 0.0 | 0.00 | 0.00 | 0.00 | 77 | 1014.0 |
| 20260506220532 | 11 | 6 | 0.0 | 3.2 | 0.00 | 0.00 | 0.00 | 76 | 1014.0 |
| 20260506220025 | 11 | 10 | 0.0 | 3.2 | 0.00 | 0.00 | 0.00 | 76 | 1014.0 |
| 20260506215529 | 11 | 10 | 0.0 | 0.0 | 0.00 | 0.00 | 0.00 | 75 | 1013.9 |
| 20260506215029 | 11 | 4 | 1.6 | 3.2 | 0.00 | 0.00 | 0.00 | 75 | 1013.9 |
| 20260506214529 | 11 | 344 | 1.6 | 4.8 | 0.00 | 0.00 | 0.00 | 75 | 1013.9 |
| 20260506214029 | 11 | 352 | 1.6 | 4.8 | 0.00 | 0.00 | 0.00 | 75 | 1013.9 |
| 20260506213533 | 11 | 354 | 1.6 | 6.4 | 0.00 | 0.00 | 0.00 | 77 | 1013.9 |
| 20260506213029 | 11 | 311 | 0.0 | 0.0 | 0.00 | 0.00 | 0.00 | 78 | 1013.8 |
| 20260506212542 | 11 | 308 | 0.0 | 0.0 | 0.00 | 0.00 | 0.00 | 78 | 1013.8 |
| 20260506212037 | 11 | 306 | 0.0 | 0.0 | 0.00 | 0.00 | 0.00 | 78 | 1013.7 |
| 20260506211529 | 11 | 306 | 0.0 | 0.0 | 0.00 | 0.00 | 0.00 | 79 | 1013.7 |
| 20260506211100 | 11 | 306 | 0.0 | 0.0 | 0.00 | 0.00 | 0.00 | 79 | 1013.7 |
| 20260506210529 | 11 | 306 | 0.0 | 0.0 | 0.00 | 0.00 | 0.00 | 79 | 1013.6 |
| 20260506210025 | 11 | 306 | 0.0 | 0.0 | 0.00 | 0.00 | 0.00 | 80 | 1013.5 |
| 20260506205529 | 11 | 306 | 0.0 | 0.0 | 0.00 | 0.00 | 0.00 | 79 | 1013.5 |
| 20260506205029 | 11 | 306 | 0.0 | 0.0 | 0.00 | 0.00 | 0.00 | 79 | 1013.5 |
| 20260506204529 | 11 | 306 | 0.0 | 0.0 | 0.00 | 0.00 | 0.00 | 78 | 1013.4 |
| 20260506204029 | 11 | 306 | 0.0 | 0.0 | 0.00 | 0.00 | 0.00 | 77 | 1013.4 |
| 20260506203529 | 11 | 306 | 0.0 | 0.0 | 0.00 | 0.00 | 0.00 | 77 | 1013.5 |
| 20260506203048 | 11 | 306 | 0.0 | 0.0 | 0.00 | 0.00 | 0.00 | 77 | 1013.5 |
| 20260506202529 | 11 | 306 | 0.0 | 0.0 | 0.00 | 0.00 | 0.00 | 75 | 1013.4 |
| 20260506202029 | 11 | 308 | 0.0 | 0.0 | 0.00 | 0.00 | 0.00 | 74 | 1013.4 |
| 20260506201529 | 11 | 308 | 0.0 | 0.0 | 0.00 | 0.00 | 0.00 | 74 | 1013.3 |
| 20260506201030 | 11 | 308 | 0.0 | 0.0 | 0.00 | 0.00 | 0.00 | 73 | 1013.4 |
| 20260506200529 | 11 | 308 | 0.0 | 0.0 | 0.00 | 0.00 | 0.00 | 73 | 1013.4 |
| 20260506200029 | 11 | 305 | 0.0 | 0.0 | 0.00 | 0.00 | 0.00 | 72 | 1013.3 |
| 20260506195529 | 11 | 308 | 0.0 | 0.0 | 0.00 | 0.00 | 0.00 | 72 | 1013.3 |
| 20260506195029 | 11 | 308 | 0.0 | 0.0 | 0.00 | 0.00 | 0.00 | 71 | 1013.3 |
| 20260506194523 | 11 | 308 | 0.0 | 0.0 | 0.00 | 0.00 | 0.00 | 71 | 1013.2 |
| 20260506194029 | 11 | 300 | 0.0 | 0.0 | 0.00 | 0.00 | 0.00 | 71 | 1013.2 |
| 20260506193529 | 11 | 300 | 0.0 | 3.2 | 0.00 | 0.00 | 0.00 | 71 | 1013.2 |
| 20260506193046 | 11 | 299 | 1.6 | 4.8 | 0.00 | 0.00 | 0.00 | 70 | 1013.1 |
| 20260506192529 | 11 | 228 | 0.0 | 1.6 | 0.00 | 0.00 | 0.00 | 71 | 1013.1 |
| 20260506192029 | 11 | 228 | 0.0 | 0.0 | 0.00 | 0.00 | 0.00 | 71 | 1013.0 |
| 20260506191529 | 11 | 228 | 0.0 | 0.0 | 0.00 | 0.00 | 0.00 | 70 | 1012.9 |
| 20260506191021 | 11 | 228 | 0.0 | 0.0 | 0.00 | 0.00 | 0.00 | 70 | 1012.8 |
| 20260506190526 | 11 | 230 | 0.0 | 1.6 | 0.00 | 0.00 | 0.00 | 70 | 1012.7 |
| 20260506190033 | 12 | 230 | 0.0 | 0.0 | 0.00 | 0.00 | 0.00 | 69 | 1012.7 |
| 20260506185530 | 12 | 230 | 1.6 | 3.2 | 0.00 | 0.00 | 0.00 | 69 | 1012.7 |
| 20260506185024 | 12 | 228 | 0.0 | 3.2 | 0.00 | 0.00 | 0.00 | 68 | 1012.6 |
| 20260506184529 | 12 | 230 | 0.0 | 3.2 | 0.00 | 0.00 | 0.00 | 68 | 1012.5 |
| 20260506184029 | 12 | 216 | 0.0 | 3.2 | 0.00 | 0.00 | 0.00 | 68 | 1012.5 |
| 20260506183529 | 12 | 353 | 1.6 | 4.8 | 0.00 | 0.00 | 0.00 | 68 | 1012.4 |
| 20260506183032 | 12 | 342 | 1.6 | 4.8 | 0.00 | 0.00 | 0.00 | 68 | 1012.4 |
| 20260506182542 | 12 | 278 | 1.6 | 3.2 | 0.00 | 0.00 | 0.00 | 67 | 1012.3 |
| 20260506182059 | 12 | 316 | 0.0 | 0.0 | 0.00 | 0.00 | 0.00 | 67 | 1012.3 |
| 20260506181544 | 12 | 305 | 0.0 | 3.2 | 0.00 | 0.00 | 0.00 | 67 | 1012.2 |
| 20260506181035 | 12 | 310 | 1.6 | 4.8 | 0.00 | 0.00 | 0.00 | 67 | 1012.2 |
| 20260506180529 | 12 | 322 | 1.6 | 4.8 | 0.00 | 0.00 | 0.00 | 66 | 1012.1 |
| 20260506180029 | 12 | 317 | 1.6 | 3.2 | 0.00 | 0.00 | 0.00 | 66 | 1012.0 |
| 20260506175530 | 12 | 316 | 1.6 | 3.2 | 0.00 | 0.00 | 0.00 | 66 | 1012.0 |
| 20260506175029 | 12 | 267 | 3.2 | 4.8 | 0.00 | 0.00 | 0.00 | 65 | 1011.9 |
| 20260506174548 | 12 | 53 | 3.2 | 4.8 | 0.00 | 0.00 | 0.00 | 66 | 1011.9 |
| 20260506174035 | 12 | 122 | 1.6 | 4.8 | 0.00 | 0.00 | 0.00 | 65 | 1011.8 |
| 20260506173523 | 12 | 141 | 0.0 | 3.2 | 0.00 | 0.00 | 0.00 | 66 | 1011.8 |
| 20260506173029 | 12 | 166 | 1.6 | 3.2 | 0.00 | 0.00 | 0.00 | 65 | 1011.8 |
| 20260506172529 | 12 | 340 | 3.2 | 8.0 | 0.00 | 0.00 | 0.00 | 64 | 1011.7 |
| 20260506172035 | 12 | 2 | 3.2 | 8.0 | 0.00 | 0.00 | 0.00 | 64 | 1011.7 |
| 20260506171525 | 12 | 353 | 4.8 | 8.0 | 0.00 | 0.00 | 0.00 | 65 | 1011.7 |
| 20260506171046 | 12 | 339 | 3.2 | 8.0 | 0.00 | 0.00 | 0.00 | 66 | 1011.7 |
| 20260506170533 | 12 | 332 | 3.2 | 8.0 | 0.00 | 0.00 | 0.00 | 66 | 1011.6 |
| 20260506170029 | 12 | 331 | 4.8 | 8.0 | 0.00 | 0.00 | 0.00 | 65 | 1011.6 |
| 20260506165529 | 12 | 349 | 4.8 | 9.7 | 0.00 | 0.00 | 0.00 | 65 | 1011.5 |
| 20260506165045 | 12 | 15 | 3.2 | 8.0 | 0.00 | 0.00 | 0.00 | 65 | 1011.5 |
| 20260506164529 | 12 | 352 | 4.8 | 8.0 | 0.00 | 0.00 | 0.00 | 65 | 1011.5 |
| 20260506164033 | 12 | 338 | 3.2 | 8.0 | 0.00 | 0.00 | 0.00 | 65 | 1011.5 |
| 20260506163535 | 12 | 327 | 3.2 | 9.7 | 0.00 | 0.00 | 0.00 | 65 | 1011.5 |
| 20260506163025 | 12 | 355 | 4.8 | 9.7 | 0.00 | 0.00 | 0.00 | 65 | 1011.4 |
| 20260506162559 | 12 | 345 | 4.8 | 9.7 | 0.00 | 0.00 | 0.00 | 65 | 1011.4 |
| 20260506162029 | 12 | 353 | 3.2 | 8.0 | 0.00 | 0.00 | 0.00 | 65 | 1011.4 |
| 20260506161530 | 12 | 3 | 4.8 | 8.0 | 0.00 | 0.00 | 0.00 | 65 | 1011.4 |
| 20260506161107 | 12 | 360 | 4.8 | 9.7 | 0.00 | 0.00 | 0.00 | 64 | 1011.4 |
| 20260506160529 | 12 | 355 | 4.8 | 8.0 | 0.00 | 0.00 | 0.00 | 64 | 1011.4 |
| 20260506160024 | 12 | 350 | 4.8 | 11.3 | 0.00 | 0.00 | 0.00 | 63 | 1011.4 |
| 20260506155529 | 13 | 353 | 4.8 | 8.0 | 0.00 | 0.00 | 0.00 | 62 | 1011.4 |
| 20260506155030 | 12 | 0 | 4.8 | 9.7 | 0.00 | 0.00 | 0.00 | 62 | 1011.4 |
| 20260506154534 | 13 | 353 | 6.4 | 14.5 | 0.00 | 0.00 | 0.00 | 61 | 1011.4 |
| 20260506154025 | 13 | 348 | 6.4 | 11.3 | 0.00 | 0.00 | 0.00 | 61 | 1011.4 |
| 20260506153529 | 13 | 358 | 4.8 | 8.0 | 0.00 | 0.00 | 0.00 | 62 | 1011.4 |
| 20260506153042 | 13 | 0 | 6.4 | 9.7 | 0.00 | 0.00 | 0.00 | 61 | 1011.4 |
| 20260506152529 | 13 | 346 | 6.4 | 12.9 | 0.00 | 0.00 | 0.00 | 61 | 1011.4 |
| 20260506152029 | 13 | 350 | 6.4 | 12.9 | 0.00 | 0.00 | 0.00 | 60 | 1011.4 |
| 20260506151529 | 13 | 346 | 6.4 | 16.1 | 0.00 | 0.00 | 0.00 | 59 | 1011.3 |
| 20260506151024 | 13 | 0 | 4.8 | 8.0 | 0.00 | 0.00 | 0.00 | 58 | 1011.3 |
| 20260506150533 | 13 | 357 | 4.8 | 9.7 | 0.00 | 0.00 | 0.00 | 57 | 1011.2 |
| 20260506150034 | 13 | 357 | 6.4 | 9.7 | 0.00 | 0.00 | 0.00 | 58 | 1011.2 |
| 20260506145529 | 13 | 339 | 4.8 | 8.0 | 0.00 | 0.00 | 0.00 | 57 | 1011.2 |
| 20260506145042 | 14 | 341 | 6.4 | 9.7 | 0.00 | 0.00 | 0.00 | 56 | 1011.1 |
| 20260506144529 | 14 | 343 | 6.4 | 16.1 | 0.00 | 0.00 | 0.00 | 56 | 1011.0 |
| 20260506144030 | 13 | 343 | 6.4 | 11.3 | 0.00 | 0.00 | 0.00 | 56 | 1011.1 |
| 20260506143529 | 13 | 325 | 6.4 | 9.7 | 0.00 | 0.00 | 0.00 | 56 | 1011.1 |
| 20260506143026 | 13 | 343 | 6.4 | 9.7 | 0.00 | 0.00 | 0.00 | 57 | 1011.1 |
| 20260506142607 | 13 | 345 | 6.4 | 17.7 | 0.00 | 0.00 | 0.00 | 57 | 1011.1 |
| 20260506142029 | 13 | 356 | 4.8 | 9.7 | 0.00 | 0.00 | 0.00 | 58 | 1011.1 |
| 20260506141529 | 13 | 344 | 4.8 | 8.0 | 0.00 | 0.00 | 0.00 | 59 | 1011.0 |
| 20260506141031 | 13 | 338 | 6.4 | 9.7 | 0.00 | 0.00 | 0.00 | 61 | 1011.0 |
| 20260506140529 | 13 | 360 | 3.2 | 8.0 | 0.00 | 0.00 | 0.00 | 62 | 1011.0 |
| 20260506140029 | 13 | 347 | 3.2 | 8.0 | 0.00 | 0.00 | 0.00 | 62 | 1011.0 |
| 20260506135521 | 13 | 359 | 4.8 | 9.7 | 0.00 | 0.00 | 0.00 | 62 | 1011.0 |
| 20260506135029 | 13 | 10 | 4.8 | 11.3 | 0.00 | 0.00 | 0.00 | 64 | 1011.0 |
| 20260506134529 | 13 | 339 | 4.8 | 8.0 | 0.00 | 0.00 | 0.00 | 64 | 1010.9 |
| 20260506134029 | 14 | 339 | 4.8 | 8.0 | 0.00 | 0.00 | 0.00 | 63 | 1010.9 |
| 20260506133533 | 13 | 348 | 4.8 | 9.7 | 0.00 | 0.00 | 0.00 | 64 | 1010.9 |
| 20260506133029 | 13 | 359 | 6.4 | 9.7 | 0.00 | 0.00 | 0.00 | 63 | 1010.9 |
| 20260506132530 | 14 | 339 | 6.4 | 9.7 | 0.00 | 0.00 | 0.00 | 62 | 1010.8 |
| 20260506132029 | 15 | 356 | 6.4 | 11.3 | 0.00 | 0.00 | 0.00 | 60 | 1010.8 |
| 20260506131522 | 15 | 344 | 4.8 | 8.0 | 0.00 | 0.00 | 0.00 | 61 | 1010.8 |
| 20260506131031 | 15 | 353 | 4.8 | 8.0 | 0.00 | 0.00 | 0.00 | 60 | 1010.8 |
| 20260506130529 | 14 | 349 | 6.4 | 9.7 | 0.00 | 0.00 | 0.00 | 62 | 1010.7 |
| 20260506130033 | 14 | 3 | 6.4 | 9.7 | 0.00 | 0.00 | 0.00 | 62 | 1010.7 |
| 20260506125532 | 15 | 348 | 6.4 | 11.3 | 0.00 | 0.00 | 0.00 | 62 | 1010.7 |
| 20260506125021 | 14 | 346 | 4.8 | 9.7 | 0.00 | 0.00 | 0.00 | 62 | 1010.6 |
| 20260506124538 | 14 | 344 | 6.4 | 11.3 | 0.00 | 0.00 | 0.00 | 63 | 1010.6 |
| 20260506124033 | 13 | 2 | 4.8 | 8.0 | 0.00 | 0.00 | 0.00 | 64 | 1010.6 |
| 20260506123527 | 13 | 359 | 6.4 | 12.9 | 0.00 | 0.00 | 0.00 | 65 | 1010.6 |
| 20260506123032 | 14 | 345 | 4.8 | 9.7 | 0.00 | 0.00 | 0.00 | 66 | 1010.5 |
| 20260506122533 | 14 | 4 | 6.4 | 9.7 | 0.00 | 0.00 | 0.00 | 64 | 1010.5 |
| 20260506122032 | 14 | 357 | 6.4 | 17.7 | 0.00 | 0.00 | 0.00 | 64 | 1010.5 |
| 20260506121529 | 14 | 358 | 6.4 | 9.7 | 0.00 | 0.00 | 0.00 | 64 | 1010.5 |
| 20260506121030 | 14 | 356 | 4.8 | 8.0 | 0.00 | 0.00 | 0.00 | 63 | 1010.4 |
| 20260506120533 | 13 | 359 | 4.8 | 9.7 | 0.00 | 0.00 | 0.00 | 64 | 1010.4 |
| 20260506120032 | 13 | 350 | 6.4 | 12.9 | 0.00 | 0.00 | 0.00 | 67 | 1010.4 |
| 20260506115533 | 14 | 356 | 8.0 | 14.5 | 0.00 | 0.00 | 0.00 | 65 | 1010.4 |
| 20260506115033 | 15 | 348 | 4.8 | 8.0 | 0.00 | 0.00 | 0.00 | 59 | 1010.3 |
| 20260506114533 | 15 | 336 | 4.8 | 11.3 | 0.00 | 0.00 | 0.00 | 59 | 1010.3 |
| 20260506114033 | 14 | 8 | 6.4 | 11.3 | 0.00 | 0.00 | 0.00 | 59 | 1010.3 |
| 20260506113532 | 14 | 347 | 6.4 | 11.3 | 0.00 | 0.00 | 0.00 | 59 | 1010.3 |
| 20260506113034 | 14 | 355 | 4.8 | 9.7 | 0.00 | 0.00 | 0.00 | 61 | 1010.3 |
| 20260506112535 | 14 | 350 | 4.8 | 11.3 | 0.00 | 0.00 | 0.00 | 61 | 1010.3 |
| 20260506112032 | 14 | 354 | 4.8 | 9.7 | 0.00 | 0.00 | 0.00 | 61 | 1010.3 |
| 20260506111527 | 15 | 332 | 6.4 | 17.7 | 0.00 | 0.00 | 0.00 | 58 | 1010.3 |
| 20260506111038 | 15 | 351 | 6.4 | 12.9 | 0.00 | 0.00 | 0.00 | 56 | 1010.3 |
| 20260506110529 | 15 | 340 | 4.8 | 9.7 | 0.00 | 0.00 | 0.00 | 58 | 1010.2 |
| 20260506110034 | 15 | 342 | 6.4 | 11.3 | 0.00 | 0.00 | 0.00 | 59 | 1010.2 |
| 20260506105525 | 15 | 14 | 3.2 | 8.0 | 0.00 | 0.00 | 0.00 | 60 | 1010.2 |
| 20260506105032 | 15 | 353 | 4.8 | 9.7 | 0.00 | 0.00 | 0.00 | 61 | 1010.3 |
| 20260506104533 | 14 | 355 | 4.8 | 11.3 | 0.00 | 0.00 | 0.00 | 63 | 1010.3 |
| 20260506104024 | 14 | 343 | 6.4 | 11.3 | 0.00 | 0.00 | 0.00 | 63 | 1010.3 |
| 20260506103532 | 15 | 338 | 6.4 | 11.3 | 0.00 | 0.00 | 0.00 | 62 | 1010.3 |
| 20260506103030 | 14 | 357 | 4.8 | 11.3 | 0.00 | 0.00 | 0.00 | 63 | 1010.3 |
| 20260506102545 | 14 | 360 | 6.4 | 9.7 | 0.00 | 0.00 | 0.00 | 64 | 1010.2 |
| 20260506102034 | 13 | 8 | 4.8 | 8.0 | 0.00 | 0.00 | 0.00 | 65 | 1010.2 |
| 20260506101532 | 13 | 358 | 4.8 | 9.7 | 0.00 | 0.00 | 0.00 | 67 | 1010.2 |
| 20260506101030 | 13 | 344 | 6.4 | 11.3 | 0.00 | 0.00 | 0.00 | 67 | 1010.2 |
| 20260506100532 | 13 | 348 | 4.8 | 11.3 | 0.00 | 0.00 | 0.00 | 67 | 1010.1 |
| 20260506100024 | 13 | 2 | 4.8 | 16.1 | 0.00 | 0.00 | 0.00 | 71 | 1010.1 |
| 20260506095532 | 13 | 346 | 4.8 | 9.7 | 0.00 | 0.00 | 0.00 | 73 | 1010.1 |
| 20260506095037 | 13 | 3 | 4.8 | 9.7 | 0.00 | 0.00 | 0.00 | 73 | 1010.1 |
| 20260506094533 | 13 | 341 | 4.8 | 8.0 | 0.00 | 0.00 | 0.00 | 74 | 1010.0 |
| 20260506094024 | 13 | 344 | 4.8 | 9.7 | 0.00 | 0.00 | 0.00 | 74 | 1010.1 |
| 20260506093530 | 13 | 349 | 4.8 | 8.0 | 0.00 | 0.00 | 0.00 | 75 | 1010.1 |
| 20260506093033 | 13 | 332 | 4.8 | 8.0 | 0.00 | 0.00 | 0.00 | 76 | 1010.1 |
| 20260506092533 | 13 | 352 | 4.8 | 9.7 | 0.00 | 0.00 | 0.00 | 76 | 1010.0 |
| 20260506092025 | 13 | 353 | 6.4 | 11.3 | 0.00 | 0.00 | 0.00 | 74 | 1010.0 |
| 20260506091534 | 13 | 352 | 8.0 | 16.1 | 0.00 | 0.00 | 0.00 | 74 | 1010.0 |
| 20260506091032 | 13 | 353 | 6.4 | 11.3 | 0.00 | 0.00 | 0.00 | 74 | 1010.0 |
| 20260506090530 | 13 | 339 | 6.4 | 9.7 | 0.00 | 0.00 | 0.00 | 73 | 1010.0 |
| 20260506090034 | 13 | 355 | 4.8 | 8.0 | 0.00 | 0.00 | 0.00 | 75 | 1010.0 |
| 20260506085532 | 13 | 348 | 6.4 | 8.0 | 0.00 | 0.00 | 0.00 | 75 | 1009.9 |
| 20260506085058 | 12 | 357 | 4.8 | 9.7 | 0.00 | 0.00 | 0.00 | 80 | 1009.9 |
| 20260506084532 | 12 | 352 | 4.8 | 9.7 | 0.00 | 0.00 | 0.00 | 81 | 1009.9 |
| 20260506084026 | 12 | 358 | 4.8 | 9.7 | 0.00 | 0.00 | 0.00 | 82 | 1009.9 |
| 20260506083533 | 12 | 339 | 3.2 | 11.3 | 0.00 | 0.00 | 0.00 | 83 | 1009.9 |
| 20260506083032 | 12 | 357 | 6.4 | 12.9 | 0.00 | 0.00 | 0.00 | 83 | 1009.9 |
| 20260506082532 | 12 | 354 | 4.8 | 11.3 | 0.00 | 0.00 | 0.00 | 83 | 1009.9 |
| 20260506082036 | 12 | 343 | 4.8 | 9.7 | 0.00 | 0.00 | 0.00 | 84 | 1009.8 |
| 20260506081529 | 12 | 357 | 4.8 | 8.0 | 0.00 | 0.00 | 0.00 | 84 | 1009.8 |
| 20260506081032 | 12 | 1 | 6.4 | 11.3 | 0.00 | 0.00 | 0.00 | 85 | 1009.9 |
| 20260506080532 | 11 | 349 | 3.2 | 8.0 | 0.00 | 0.00 | 0.00 | 86 | 1009.8 |